Spirit — WDD6522 — position and weather

sailwx.info

Track history (hours):
 
Tides and Currents Weather Stations Pressure Air Temp Water Temp Dewpoint Dewpoint Depression Visibility Wind Speed Wind Dir Waves Ship Positions

Spirit

Owner: Nitzsche, Christian, Greenwich, CT. More information available from US FCC via Universal Licensing System and Coast Guard Vessel Documentation Center.

Last reported at 2015-Jun-28 18:04 UTC. Time now 2015-Jul-03 06:12 UTC.
Position N 40°46' W 073°57'.

Length 13 m.

Type: Sailing vessel. MMSI: 367173990.

Date/timePositionNaut miles runAvg speedWind from/ knotsBaromVisibWave heightAir tempDewpointWater temp
2015-Jun-28 18:04N 40°46' W 073°57'3 6.3
2015-Jun-28 17:33N 40°43' W 073°59'3 3.4
2015-Jun-28 16:33N 40°41' W 074°03'2 1.9
2015-Jun-28 15:31N 40°43' W 074°02'9 8.4
2015-Jun-28 14:25N 40°51' W 073°57'0 0.0
2015-Jun-27 14:17N 40°51' W 073°57'4 5.0
2015-Jun-27 13:33N 40°48' W 073°59'6 5.6
2015-Jun-27 12:33N 40°43' W 074°02'1 0.0
2015-Jun-26 16:31N 40°43' W 074°03'2 2.1
2015-Jun-26 15:34N 40°42' W 073°60'  
Track history (hours):
 
Tides and Currents Weather Stations Pressure Air Temp Water Temp Dewpoint Dewpoint Depression Visibility Wind Speed Wind Dir Waves Ship Positions

Spirit

Owner: Nitzsche, Christian, Greenwich, CT. More information available from US FCC via Universal Licensing System and Coast Guard Vessel Documentation Center.

Last reported at 2015-Jun-28 18:04 UTC. Time now 2015-Jul-03 06:12 UTC.
Position N 40°46' W 073°57'.

Length 13 m.

Type: Sailing vessel. MMSI: 367173990.

Date/timePositionNaut miles runAvg speedWind from/ knotsBaromVisibWave heightAir tempDewpointWater temp
2015-Jun-28 18:04N 40°46' W 073°57'3 6.3
2015-Jun-28 17:33N 40°43' W 073°59'3 3.4
2015-Jun-28 16:33N 40°41' W 074°03'2 1.9
2015-Jun-28 15:31N 40°43' W 074°02'9 8.4
2015-Jun-28 14:25N 40°51' W 073°57'0 0.0
2015-Jun-27 14:17N 40°51' W 073°57'4 5.0
2015-Jun-27 13:33N 40°48' W 073°59'6 5.6
2015-Jun-27 12:33N 40°43' W 074°02'1 0.0
2015-Jun-26 16:31N 40°43' W 074°03'2 2.1
2015-Jun-26 15:34N 40°42' W 073°60'  

Dump ship's entire track history